HYG weather

Hydaburg Seaplane Base
Hydaburg, Alaska, United States

Public forecast

Using degrees Fahrenheit for public forecast. Weather courtesy of forecast.io.

METAR (pilot weather report)

Report is more than 6 hours old.

Retrieved 2019/03/20 20:56 UTC (2 months ago):

PAHY 202056Z AUTO 11009KT 10SM CLR 13/02 A2993 RMK AO2 SLP235 T01280022 51002 $

TAF (pilot weather forecast)

Closest forecast is Klawock Airport, 23.9 nm (44.3 km) NNW. Retrieved 2019/05/19 12:22 UTC (3 hours ago):

TAF PAKW 191120Z 1912/2012 VRB03KT P6SM FEW050 SCT100 FM191800 23006KT P6SM BKN050 BKN100 FM200300 VRB03KT P6SM FEW100 AMD LTD TO CLD VIS AND WIND